Time;durP1;ratioP1;P1;durP2;ratioP2;P2;SDS_P1;SDS_P2;PMS_P1;PMS_P2;Temp;Humidity;BMP_temperature;BMP_pressure;BME280_temperature;BME280_humidity;BME280_pressure;Samples;Min_cycle;Max_cycle;Signal;HPM_P1;HPM_P2
2022/07/04 00:02:42;;;;;;;9.43;6.53;;;;;;;17.23;65.00;100320.80;1978442;90;31164;-65
2022/07/04 00:05:44;;;;;;;7.60;6.28;;;;;;;17.19;65.29;100319.80;2117904;83;32975;-64
2022/07/04 00:08:45;;;;;;;7.45;6.75;;;;;;;17.15;65.21;100319.16;2131201;83;29318;-64
2022/07/04 00:11:46;;;;;;;6.65;6.03;;;;;;;17.11;65.46;100321.24;2131398;83;27643;-65
2022/07/04 00:14:48;;;;;;;7.55;6.37;;;;;;;17.07;65.52;100313.48;2131328;83;28725;-64
2022/07/04 00:17:50;;;;;;;9.65;6.92;;;;;;;17.03;65.68;100307.92;2130827;83;30539;-64
2022/07/04 00:20:53;;;;;;;7.28;6.58;;;;;;;17.03;66.39;100304.74;2131088;83;33015;-64
2022/07/04 00:23:54;;;;;;;9.68;6.70;;;;;;;17.05;66.15;100308.17;2144518;83;29339;-64
2022/07/04 00:26:56;;;;;;;7.70;6.90;;;;;;;17.03;66.30;100311.52;2119598;84;27695;-65
2022/07/04 00:29:57;;;;;;;9.35;7.20;;;;;;;17.01;66.31;100320.23;2175522;81;28683;-64
2022/07/04 00:32:58;;;;;;;11.88;8.08;;;;;;;16.98;66.22;100317.76;2150031;82;31024;-64
2022/07/04 00:35:59;;;;;;;7.62;6.83;;;;;;;16.94;66.65;100313.05;2149799;82;33016;-63
2022/07/04 00:39:01;;;;;;;8.03;7.33;;;;;;;16.93;66.77;100315.85;2150004;82;29073;-63
2022/07/04 00:42:03;;;;;;;8.40;7.15;;;;;;;16.92;66.85;100308.23;2175545;81;27611;-64
2022/07/04 00:45:07;;;;;;;8.05;7.05;;;;;;;16.91;66.91;100304.28;2171943;81;28818;-65
2022/07/04 00:48:08;;;;;;;8.13;7.28;;;;;;;16.87;67.00;100294.19;2158273;82;31102;-65
2022/07/04 00:51:10;;;;;;;9.15;7.47;;;;;;;16.83;67.10;100289.51;2141821;82;32470;-64
2022/07/04 00:54:17;;;;;;;8.10;7.30;;;;;;;16.80;67.13;100287.50;2135978;83;29339;-65
2022/07/04 00:57:19;;;;;;;8.33;7.50;;;;;;;16.69;67.13;100281.08;2121026;83;27673;-65
2022/07/04 01:00:20;;;;;;;11.70;7.47;;;;;;;16.71;67.71;100286.39;2136706;83;29542;-65
2022/07/04 01:03:23;;;;;;;8.35;7.53;;;;;;;16.68;67.66;100287.97;2120795;84;31027;-65
2022/07/04 01:06:24;;;;;;;10.20;7.75;;;;;;;16.63;67.53;100291.00;2141158;81;32972;-64
2022/07/04 01:09:26;;;;;;;8.30;7.40;;;;;;;16.60;67.82;100294.43;2121439;83;30088;-65
2022/07/04 01:12:28;;;;;;;9.73;7.42;;;;;;;16.55;67.88;100292.08;2136766;83;27609;-64
2022/07/04 01:15:30;;;;;;;8.98;7.58;;;;;;;16.51;68.05;100294.16;2136606;83;28706;-65
2022/07/04 01:18:31;;;;;;;9.78;7.17;;;;;;;16.47;68.08;100289.07;2136403;83;31961;-65
2022/07/04 01:21:34;;;;;;;10.20;7.45;;;;;;;16.44;68.30;100289.33;2163125;81;32949;-64
2022/07/04 01:24:36;;;;;;;7.90;7.12;;;;;;;16.28;68.32;100258.03;2184485;81;29312;-65
2022/07/04 01:27:37;;;;;;;7.95;6.95;;;;;;;16.35;68.39;100287.67;2184264;81;27754;-65
2022/07/04 01:30:39;;;;;;;9.40;7.20;;;;;;;16.32;68.54;100291.94;2158717;82;28649;-66
2022/07/04 01:33:40;;;;;;;8.75;7.37;;;;;;;16.28;68.50;100284.18;2158512;82;31005;-66
2022/07/04 01:36:41;;;;;;;11.05;7.03;;;;;;;16.24;68.93;100280.84;2154026;82;32953;-67
2022/07/04 01:39:43;;;;;;;10.15;7.03;;;;;;;16.20;68.97;100272.59;2158464;82;29393;-66
2022/07/04 01:42:47;;;;;;;8.70;7.17;;;;;;;16.18;68.98;100272.71;2158191;82;28159;-66
2022/07/04 01:45:48;;;;;;;7.92;7.12;;;;;;;16.15;68.99;100270.23;2165551;81;28643;-66
2022/07/04 01:48:52;;;;;;;9.68;8.00;;;;;;;16.12;68.96;100265.55;2149091;82;31139;-65
2022/07/04 01:51:54;;;;;;;9.03;6.83;;;;;;;16.08;69.00;100258.13;2126954;82;33090;-66
2022/07/04 01:54:57;;;;;;;8.10;6.90;;;;;;;16.03;69.18;100250.87;2156265;82;29924;-67
2022/07/04 01:57:58;;;;;;;9.88;7.35;;;;;;;16.01;69.28;100246.91;2156268;82;27999;-65
2022/07/04 02:04:21;;;;;;;9.05;7.87;;;;;;;16.02;69.76;100241.88;2155894;82;32263;-64
2022/07/04 02:07:23;;;;;;;9.85;8.40;;;;;;;16.00;69.87;100238.42;2156627;82;32993;-63
2022/07/04 02:10:25;;;;;;;9.60;8.33;;;;;;;15.99;70.10;100235.34;2155952;82;30016;-64
2022/07/04 02:13:26;;;;;;;10.65;8.65;;;;;;;15.89;70.01;100227.55;2156680;82;27665;-64
2022/07/04 02:16:28;;;;;;;9.40;8.40;;;;;;;15.97;69.96;100236.45;2156360;82;29692;-64
2022/07/04 02:19:29;;;;;;;9.33;8.30;;;;;;;15.95;69.95;100237.92;2156177;82;31047;-65
2022/07/04 02:22:31;;;;;;;9.38;8.38;;;;;;;15.93;70.00;100239.88;2156109;82;33779;-65
2022/07/04 02:25:33;;;;;;;11.12;9.00;;;;;;;15.90;70.13;100243.64;2156131;82;29334;-67
2022/07/04 02:28:34;;;;;;;10.13;9.13;;;;;;;15.88;70.39;100231.23;2156228;82;27724;-64
2022/07/04 02:31:35;;;;;;;11.30;10.10;;;;;;;15.89;70.39;100247.82;2156257;82;28667;-64
2022/07/04 02:34:37;;;;;;;13.85;9.30;;;;;;;15.90;70.53;100242.80;2156264;82;31003;-64
2022/07/04 02:37:39;;;;;;;9.30;8.33;;;;;;;15.65;70.54;100206.25;2156118;82;33730;-64
2022/07/04 02:40:41;;;;;;;9.90;8.90;;;;;;;15.86;70.51;100245.33;2156252;82;29385;-64
2022/07/04 02:43:42;;;;;;;11.75;8.55;;;;;;;15.85;70.68;100248.98;2156238;82;28165;-64
2022/07/04 02:46:43;;;;;;;9.88;8.83;;;;;;;15.82;70.59;100254.59;2150586;82;29429;-64
2022/07/04 02:49:44;;;;;;;10.82;9.25;;;;;;;15.81;70.75;100255.09;2147760;82;31045;-64
2022/07/04 02:52:45;;;;;;;9.78;8.78;;;;;;;15.80;70.91;100258.77;2124639;83;32423;-64
2022/07/04 02:55:47;;;;;;;9.35;8.08;;;;;;;15.68;70.59;100232.16;2120820;83;29307;-65
2022/07/04 02:58:48;;;;;;;12.75;8.58;;;;;;;15.68;70.59;100232.16;2136830;83;27613;-64
2022/07/04 03:01:50;;;;;;;11.35;7.97;;;;;;;15.82;70.94;100255.95;2120778;83;29462;-64
2022/07/04 03:04:51;;;;;;;11.97;8.50;;;;;;;15.82;70.94;100255.95;2124736;83;31021;-66
2022/07/04 03:07:52;;;;;;;14.98;8.50;;;;;;;15.85;70.95;100262.48;2124773;83;32941;-64
2022/07/04 03:10:54;;;;;;;11.68;8.60;;;;;;;15.87;71.08;100260.57;2124360;83;29398;-64
2022/07/04 03:13:56;;;;;;;13.15;8.25;;;;;;;15.90;71.09;100259.00;2124752;83;27728;-65
2022/07/04 03:16:57;;;;;;;14.47;8.25;;;;;;;15.90;71.09;100259.00;2124724;83;28875;-64
2022/07/04 03:19:59;;;;;;;12.43;8.05;;;;;;;15.95;71.00;100270.34;2137860;82;31849;-66
2022/07/04 03:23:00;;;;;;;11.15;8.05;;;;;;;16.00;71.07;100264.59;2161653;82;32977;-64
2022/07/04 03:26:02;;;;;;;12.25;8.93;;;;;;;16.05;71.13;100261.08;2162531;82;30111;-65
2022/07/04 03:29:03;;;;;;;14.55;8.63;;;;;;;16.08;71.01;100260.36;2162473;82;27666;-66
2022/07/04 03:32:06;;;;;;;10.05;8.15;;;;;;;16.12;71.14;100263.69;2162432;82;28620;-66
2022/07/04 03:35:08;;;;;;;13.22;9.03;;;;;;;16.16;71.02;100271.95;2162291;82;31030;-68
2022/07/04 03:38:09;;;;;;;12.35;8.98;;;;;;;16.15;71.01;100261.23;2162278;82;32955;-65
2022/07/04 03:41:11;;;;;;;10.30;9.03;;;;;;;16.25;71.03;100269.91;2162505;82;29354;-64
2022/07/04 03:44:12;;;;;;;11.83;9.10;;;;;;;16.32;71.00;100274.37;2162387;82;27775;-66
2022/07/04 03:47:13;;;;;;;12.65;9.23;;;;;;;16.38;70.96;100271.73;2161842;81;29434;-65
2022/07/04 03:50:15;;;;;;;9.98;8.68;;;;;;;16.43;70.90;100271.37;2160499;82;31053;-65
2022/07/04 03:53:16;;;;;;;11.80;9.73;;;;;;;16.49;70.83;100271.77;2160398;82;32997;-64
2022/07/04 03:56:17;;;;;;;10.93;8.40;;;;;;;16.56;70.85;100276.23;2160286;81;30239;-65
2022/07/04 03:59:19;;;;;;;9.73;8.65;;;;;;;16.60;70.74;100279.08;2160388;82;27727;-64
2022/07/04 04:02:20;;;;;;;10.15;8.95;;;;;;;16.66;70.83;100277.25;2160021;81;28682;-65
2022/07/04 04:05:27;;;;;;;10.48;8.33;;;;;;;16.74;70.78;100273.11;2160407;81;31817;-66
2022/07/04 04:08:28;;;;;;;10.48;8.65;;;;;;;16.80;70.65;100267.21;2160304;82;33011;-65
2022/07/04 04:11:31;;;;;;;14.53;9.10;;;;;;;16.90;70.71;100264.66;2160360;82;29357;-64
2022/07/04 04:14:32;;;;;;;12.40;9.10;;;;;;;17.00;70.59;100271.14;2160532;81;27601;-65
2022/07/04 04:17:33;;;;;;;12.25;9.08;;;;;;;17.07;70.44;100269.67;2160874;82;29485;-66
2022/07/04 04:20:35;;;;;;;10.18;9.20;;;;;;;17.18;70.37;100270.70;2162156;82;30979;-65
2022/07/04 04:23:36;;;;;;;10.78;8.98;;;;;;;17.25;70.39;100268.74;2162717;82;33506;-66
2022/07/04 04:26:37;;;;;;;15.65;9.25;;;;;;;17.35;70.23;100270.23;2162313;82;29367;-66
2022/07/04 04:29:38;;;;;;;14.55;9.03;;;;;;;17.45;70.14;100267.67;2162478;82;27561;-66
2022/07/04 04:32:39;;;;;;;17.15;9.55;;;;;;;17.57;70.13;100256.33;2162411;82;28662;-66
2022/07/04 04:35:41;;;;;;;10.03;8.93;;;;;;;17.69;69.97;100259.43;2162173;82;31731;-67
2022/07/04 04:38:42;;;;;;;11.45;8.13;;;;;;;17.82;69.90;100248.94;2160312;82;33006;-65
2022/07/04 04:41:43;;;;;;;10.85;8.85;;;;;;;17.94;69.76;100256.06;2161058;81;30081;-65
2022/07/04 04:44:44;;;;;;;11.83;8.45;;;;;;;18.09;69.67;100255.35;2162708;82;27651;-66
2022/07/04 04:47:46;;;;;;;10.30;8.30;;;;;;;18.27;69.72;100250.75;2172395;81;28643;-65
2022/07/04 04:50:47;;;;;;;10.93;8.43;;;;;;;18.88;70.22;100248.77;2179015;81;31038;-65
2022/07/04 04:53:48;;;;;;;11.48;7.67;;;;;;;20.13;69.89;100245.62;2178985;81;32993;-65
2022/07/04 04:56:49;;;;;;;12.35;6.12;;;;;;;21.56;68.68;100235.95;2179018;81;29326;-65
2022/07/04 04:59:51;;;;;;;7.10;6.40;;;;;;;23.01;66.25;100242.98;2179339;81;27708;-65
2022/07/04 05:02:52;;;;;;;8.48;5.50;;;;;;;24.26;63.73;100239.94;2179082;81;28613;-65
2022/07/04 05:05:53;;;;;;;7.15;5.62;;;;;;;25.41;62.38;100234.98;2179083;81;31907;-66
2022/07/04 05:09:05;;;;;;;5.87;5.17;;;;;;;26.58;60.64;100236.73;2179076;81;32434;-66
2022/07/04 05:12:13;;;;;;;7.45;5.20;;;;;;;27.59;58.31;100237.37;2177986;81;29434;-65
2022/07/04 05:15:19;;;;;;;6.90;4.62;;;;;;;28.61;57.44;100238.97;2177144;81;27703;-66
2022/07/04 05:18:23;;;;;;;5.62;5.00;;;;;;;29.54;55.28;100238.07;2177030;81;29487;-67
2022/07/04 05:21:34;;;;;;;7.85;5.03;;;;;;;30.14;53.28;100241.67;2176791;81;31022;-66
2022/07/04 05:24:51;;;;;;;6.33;4.72;;;;;;;30.87;50.62;100237.37;2155619;82;33356;-67
2022/07/04 05:27:58;;;;;;;10.55;5.60;;;;;;;31.50;50.52;100239.39;2156084;82;29392;-66
2022/07/04 05:31:05;;;;;;;5.67;5.00;;;;;;;32.17;48.79;100234.19;2156615;82;28078;-66
2022/07/04 05:34:06;;;;;;;5.00;4.50;;;;;;;32.84;47.62;100238.82;2156299;82;28653;-66
2022/07/04 05:37:10;;;;;;;5.72;4.20;;;;;;;33.57;46.37;100246.19;2156118;82;31722;-66
2022/07/04 05:40:12;;;;;;;6.65;4.20;;;;;;;34.19;44.84;100247.19;2156384;82;32989;-67
2022/07/04 05:43:14;;;;;;;4.87;4.10;;;;;;;34.63;43.48;100245.64;2156488;82;29397;-66
2022/07/04 05:46:16;;;;;;;6.50;4.20;;;;;;;34.97;42.46;100251.00;2156235;82;27610;-67
2022/07/04 05:49:18;;;;;;;4.70;4.10;;;;;;;35.24;41.15;100249.16;2159958;82;29489;-65
2022/07/04 05:52:21;;;;;;;4.50;4.10;;;;;;;35.52;40.30;100256.48;2153200;82;31863;-66
2022/07/04 05:55:23;;;;;;;7.83;4.05;;;;;;;35.68;39.45;100260.48;2123219;83;33779;-65
2022/07/04 05:58:27;;;;;;;8.08;4.40;;;;;;;35.73;38.39;100268.97;2123165;83;29339;-66
2022/07/04 06:01:28;;;;;;;8.05;4.08;;;;;;;35.89;37.47;100267.34;2125868;83;27805;-66
2022/07/04 06:04:29;;;;;;;5.42;4.00;;;;;;;36.04;37.16;100248.73;2125437;83;28936;-67
2022/07/04 06:07:31;;;;;;;5.78;4.22;;;;;;;36.19;36.71;100252.37;2126180;83;30463;-66
2022/07/04 06:10:33;;;;;;;7.92;4.10;;;;;;;36.35;36.14;100252.14;2125718;83;33029;-67
2022/07/04 06:13:34;;;;;;;8.43;4.12;;;;;;;36.31;35.64;100255.12;2125817;83;29358;-66
2022/07/04 06:16:35;;;;;;;7.58;3.80;;;;;;;36.29;35.38;100263.75;2125830;83;27713;-66
2022/07/04 06:19:37;;;;;;;8.88;3.70;;;;;;;36.14;34.88;100271.25;2125767;83;28651;-67
2022/07/04 06:22:44;;;;;;;7.10;3.55;;;;;;;36.03;34.72;100271.58;2140928;82;31029;-66
2022/07/04 06:25:45;;;;;;;6.17;4.30;;;;;;;35.97;34.60;100285.66;2162528;82;33065;-66
2022/07/04 06:28:46;;;;;;;5.17;3.50;;;;;;;35.87;34.08;100284.33;2162106;82;29578;-67
2022/07/04 06:31:48;;;;;;;6.55;3.20;;;;;;;35.76;34.27;100285.73;2162566;82;27617;-65
2022/07/04 06:38:10;;;;;;;6.25;3.58;;;;;;;35.64;33.63;100276.85;2162574;82;31067;-66
2022/07/04 06:41:11;;;;;;;12.30;4.28;;;;;;;35.57;33.30;100277.52;2162524;82;32960;-66
2022/07/04 06:44:12;;;;;;;4.47;3.20;;;;;;;35.47;33.42;100276.72;2162443;82;29313;-66
2022/07/04 06:47:14;;;;;;;6.47;3.42;;;;;;;35.40;32.98;100268.46;2159771;82;27718;-66
2022/07/04 06:50:15;;;;;;;10.38;3.90;;;;;;;35.13;32.55;100279.22;2124473;83;28662;-65
2022/07/04 06:53:16;;;;;;;5.62;3.35;;;;;;;34.90;33.16;100278.61;2123974;83;31061;-65
2022/07/04 06:56:18;;;;;;;10.78;4.10;;;;;;;34.65;32.92;100274.08;2149948;82;33830;-66
2022/07/04 06:59:19;;;;;;;9.03;3.62;;;;;;;34.34;32.95;100283.78;2150121;82;29344;-66
2022/07/04 07:02:21;;;;;;;7.28;3.30;;;;;;;34.08;33.47;100280.27;2150190;82;27600;-66
2022/07/04 07:05:22;;;;;;;7.90;3.90;;;;;;;33.96;33.59;100269.60;2149476;82;28640;-66
2022/07/04 07:08:23;;;;;;;8.25;3.25;;;;;;;33.91;33.83;100273.64;2149441;82;31074;-66
2022/07/04 07:11:25;;;;;;;6.50;3.22;;;;;;;33.95;33.96;100275.41;2149358;82;32936;-66
2022/07/04 07:14:26;;;;;;;3.65;2.95;;;;;;;34.01;33.53;100278.10;2149266;82;30279;-67
2022/07/04 07:17:28;;;;;;;8.83;3.00;;;;;;;34.09;33.34;100270.82;2149369;82;27673;-67
2022/07/04 07:20:29;;;;;;;11.78;3.00;;;;;;;34.33;33.63;100276.52;2149298;82;29444;-66
2022/07/04 07:23:30;;;;;;;7.78;3.12;;;;;;;34.63;33.17;100275.69;2149192;82;31062;-66
2022/07/04 07:26:32;;;;;;;2.52;2.33;;;;;;;34.81;32.76;100278.09;2149014;82;33020;-66
2022/07/04 07:29:33;;;;;;;5.47;2.58;;;;;;;35.03;32.66;100268.67;2149376;82;29330;-66
2022/07/04 07:32:34;;;;;;;6.17;2.72;;;;;;;35.44;32.32;100264.67;2149523;82;27626;-66
2022/07/04 07:35:36;;;;;;;3.42;2.58;;;;;;;35.73;31.92;100264.22;2149254;82;28645;-67
2022/07/04 07:38:37;;;;;;;5.28;2.50;;;;;;;35.92;31.56;100268.25;2149471;82;31004;-67
2022/07/04 07:41:39;;;;;;;3.30;2.87;;;;;;;36.14;31.54;100267.63;2149422;82;32967;-67
2022/07/04 07:44:40;;;;;;;3.50;2.60;;;;;;;36.41;31.12;100267.02;2149241;82;30117;-67
2022/07/04 07:47:42;;;;;;;4.30;3.25;;;;;;;36.47;30.96;100271.66;2149069;82;36474;-67
2022/07/04 07:50:43;;;;;;;4.25;3.17;;;;;;;36.57;30.54;100271.00;2148909;82;29507;-66
2022/07/04 07:53:45;;;;;;;9.45;3.27;;;;;;;36.45;30.42;100266.87;2149071;82;31847;-67
2022/07/04 07:56:46;;;;;;;4.87;2.92;;;;;;;36.45;30.52;100273.84;2149193;82;33002;-67
2022/07/04 07:59:48;;;;;;;6.97;2.92;;;;;;;36.39;30.43;100265.03;2149007;82;29400;-66
2022/07/04 08:06:11;;;;;;;4.37;2.80;;;;;;;36.08;30.55;100261.07;2149408;82;29658;-68
2022/07/04 08:09:14;;;;;;;5.80;3.25;;;;;;;35.86;30.41;100268.70;2149191;82;31053;-67
2022/07/04 08:12:15;;;;;;;4.87;2.90;;;;;;;35.71;30.64;100274.77;2149214;82;33055;-69
2022/07/04 08:15:16;;;;;;;3.12;2.83;;;;;;;35.72;30.85;100270.05;2149426;82;29350;-68
2022/07/04 08:18:18;;;;;;;3.17;2.75;;;;;;;35.67;30.58;100273.55;2124584;82;27634;-68
2022/07/04 08:21:19;;;;;;;5.78;2.92;;;;;;;35.72;30.97;100270.05;2149183;82;29541;-67
2022/07/04 08:24:22;;;;;;;3.42;3.12;;;;;;;35.70;30.74;100274.46;2149440;82;31004;-67
2022/07/04 08:27:23;;;;;;;3.90;2.85;;;;;;;35.61;30.74;100274.55;2149152;82;33886;-69
2022/07/04 08:30:25;;;;;;;3.10;2.90;;;;;;;35.46;30.68;100270.02;2149386;82;29428;-70
2022/07/04 08:33:28;;;;;;;5.55;3.08;;;;;;;35.24;30.81;100264.48;2149154;82;27752;-68
2022/07/04 08:36:29;;;;;;;8.75;3.10;;;;;;;35.23;30.85;100261.39;2149496;82;28641;-68
2022/07/04 08:39:31;;;;;;;7.28;3.05;;;;;;;35.20;30.79;100258.22;2149010;82;31037;-69
2022/07/04 08:42:37;;;;;;;7.05;3.00;;;;;;;35.04;30.96;100259.23;2149406;82;32962;-69
2022/07/04 08:45:40;;;;;;;6.80;3.30;;;;;;;35.10;30.88;100262.98;2149562;82;29337;-69
2022/07/04 08:48:43;;;;;;;7.40;3.35;;;;;;;35.15;31.02;100271.48;2147929;82;33126;-70
2022/07/04 08:51:55;;;;;;;6.05;2.65;;;;;;;35.26;31.05;100266.45;2140566;82;28715;-67
2022/07/04 08:58:26;;;;;;;6.78;2.70;;;;;;;35.32;30.87;100270.76;2124239;83;33765;-70
2022/07/04 09:01:27;;;;;;;5.53;2.77;;;;;;;35.37;30.91;100277.86;2124064;83;29396;-71
2022/07/04 09:04:29;;;;;;;8.23;3.00;;;;;;;35.33;31.01;100284.44;2124563;83;27695;-70
2022/07/04 09:07:30;;;;;;;3.35;2.62;;;;;;;35.32;30.79;100279.12;2124412;82;29500;-68
2022/07/04 09:10:32;;;;;;;5.12;2.62;;;;;;;35.29;31.06;100289.64;2124294;82;30998;-70
2022/07/04 09:13:34;;;;;;;9.35;2.98;;;;;;;35.22;30.85;100297.29;2124435;83;32981;-69
2022/07/04 09:16:35;;;;;;;7.60;2.90;;;;;;;35.12;30.76;100299.27;2108095;83;29969;-69
2022/07/04 09:19:36;;;;;;;7.00;3.25;;;;;;;35.00;30.85;100302.55;2138697;82;27765;-72
2022/07/04 09:22:38;;;;;;;6.22;2.90;;;;;;;34.92;31.06;100301.49;2121671;82;28148;-69
2022/07/04 09:25:39;;;;;;;3.47;3.08;;;;;;;34.85;31.07;100304.38;2146959;82;30987;-69
2022/07/04 09:28:54;;;;;;;6.87;3.25;;;;;;;34.79;31.13;100304.80;2146449;82;33125;-70
2022/07/04 09:31:55;;;;;;;5.15;3.20;;;;;;;34.67;31.11;100301.96;2146312;82;29330;-70
2022/07/04 09:34:57;;;;;;;5.85;3.33;;;;;;;34.48;31.16;100311.44;2146244;82;27651;-70
2022/07/04 09:38:01;;;;;;;8.03;3.42;;;;;;;34.27;31.32;100321.10;2146187;82;28624;-68
2022/07/04 09:44:45;;;;;;;6.72;3.77;;;;;;;34.08;31.53;100312.25;2145848;83;32429;-68
2022/07/04 09:47:46;;;;;;;6.33;4.17;;;;;;;34.00;31.61;100313.93;2140567;82;30296;-69
2022/07/04 09:50:48;;;;;;;4.17;3.80;;;;;;;33.88;31.81;100317.98;2088597;84;27732;-70
2022/07/04 09:53:49;;;;;;;5.53;3.75;;;;;;;33.77;31.91;100314.03;2088694;84;28687;-72
2022/07/04 09:56:54;;;;;;;4.17;3.60;;;;;;;33.69;32.13;100320.42;2088908;84;31011;-71
2022/07/04 09:59:55;;;;;;;4.60;3.60;;;;;;;33.53;32.13;100318.55;2088614;84;32429;-72
2022/07/04 10:03:18;;;;;;;5.00;3.95;;;;;;;33.33;32.33;100318.19;2089019;85;29397;-70
2022/07/04 10:06:19;;;;;;;8.40;3.75;;;;;;;33.14;32.60;100331.13;2088889;85;27674;-72
2022/07/04 10:09:21;;;;;;;4.45;3.60;;;;;;;32.82;32.80;100325.59;2072570;85;28649;-70
2022/07/04 10:12:27;;;;;;;9.43;4.08;;;;;;;32.66;33.14;100324.70;2088112;85;31301;-70
2022/07/04 10:15:29;;;;;;;6.17;3.85;;;;;;;32.43;33.26;100324.19;2088738;84;33018;-70
2022/07/04 10:18:31;;;;;;;3.85;3.55;;;;;;;32.19;33.41;100329.91;2102972;83;30207;-72
2022/07/04 10:21:33;;;;;;;6.90;4.08;;;;;;;32.05;33.89;100331.86;2146573;82;27713;-70
2022/07/04 10:24:34;;;;;;;6.33;4.10;;;;;;;32.01;34.04;100322.82;2146317;82;28084;-70
2022/07/04 10:27:38;;;;;;;4.15;3.30;;;;;;;31.93;34.20;100315.08;2146379;82;31077;-71
2022/07/04 10:30:40;;;;;;;11.10;4.10;;;;;;;31.92;34.36;100321.69;2146318;82;33838;-70
2022/07/04 10:33:43;;;;;;;5.75;3.58;;;;;;;32.01;34.66;100312.61;2146261;82;30128;-70
2022/07/04 10:36:52;;;;;;;5.97;3.97;;;;;;;32.16;34.82;100308.72;2142671;82;27718;-71
2022/07/04 10:39:53;;;;;;;6.60;3.95;;;;;;;32.31;34.85;100316.25;2125901;82;28913;-71
2022/07/04 10:42:54;;;;;;;5.62;4.47;;;;;;;32.45;35.20;100308.70;2124247;83;31018;-68
2022/07/04 10:45:59;;;;;;;4.70;3.95;;;;;;;32.50;35.01;100315.83;2124332;82;32944;-69
2022/07/04 10:49:05;;;;;;;4.58;4.17;;;;;;;32.54;35.04;100314.84;2121495;82;29341;-70
2022/07/04 10:52:13;;;;;;;6.47;3.70;;;;;;;32.51;35.01;100302.28;2162505;82;27740;-70
2022/07/04 10:55:15;;;;;;;4.00;3.62;;;;;;;32.43;35.12;100304.77;2162248;82;28649;-70
2022/07/04 10:58:42;;;;;;;5.45;3.70;;;;;;;32.46;35.34;100305.41;2162410;82;31626;-69
2022/07/04 11:02:08;;;;;;;5.12;4.55;;;;;;;32.42;35.38;100311.94;2162159;82;32950;-70
2022/07/04 11:05:11;;;;;;;6.42;3.65;;;;;;;32.32;35.37;100306.86;2161641;82;30260;-69
2022/07/04 11:08:13;;;;;;;5.30;3.98;;;;;;;32.24;35.64;100303.78;2162535;82;27725;-70
2022/07/04 11:11:51;;;;;;;6.05;4.33;;;;;;;32.24;35.76;100295.46;2162599;82;28056;-70
2022/07/04 11:14:52;;;;;;;3.70;3.00;;;;;;;32.24;35.82;100291.82;2162419;82;30433;-69
2022/07/04 11:17:55;;;;;;;4.30;3.90;;;;;;;32.15;35.96;100284.28;2161320;82;32345;-67
2022/07/04 11:20:57;;;;;;;5.92;4.12;;;;;;;32.05;36.04;100276.44;2162390;82;37170;-69
2022/07/04 11:23:58;;;;;;;7.22;3.95;;;;;;;32.04;36.38;100276.12;2160878;82;28131;-70
2022/07/04 11:27:00;;;;;;;8.35;4.08;;;;;;;32.05;36.19;100267.28;2162448;82;28610;-70
2022/07/04 11:30:02;;;;;;;2.47;2.30;;;;;;;32.06;36.72;100277.30;2162482;82;30689;-70
2022/07/04 11:33:03;;;;;;;6.12;3.17;;;;;;;32.10;36.42;100266.94;2162413;82;32932;-69
2022/07/04 11:36:09;;;;;;;6.50;3.67;;;;;;;32.15;36.63;100265.44;2136916;81;29358;-65
2022/07/04 11:39:14;;;;;;;5.17;3.20;;;;;;;32.23;36.58;100267.42;2125553;83;27647;-67
2022/07/04 11:45:35;;;;;;;10.23;3.58;;;;;;;32.34;36.10;100263.66;2125371;83;31189;-65
2022/07/04 11:48:37;;;;;;;7.40;4.28;;;;;;;32.36;36.25;100261.52;2125144;83;32981;-65
2022/07/04 11:51:44;;;;;;;10.48;3.67;;;;;;;32.41;36.32;100266.70;2121368;83;29532;-65
2022/07/04 11:54:50;;;;;;;3.60;3.30;;;;;;;32.50;36.26;100263.69;2121573;83;28214;-70
2022/07/04 11:57:52;;;;;;;7.50;3.52;;;;;;;32.53;36.09;100257.67;2121378;83;29475;-70
2022/07/04 12:00:53;;;;;;;1.98;1.80;;;;;;;32.67;36.01;100253.77;2121342;82;31029;-70
2022/07/04 12:03:54;;;;;;;3.10;2.77;;;;;;;32.79;35.70;100256.64;2121287;82;33776;-71
2022/07/04 12:06:56;;;;;;;3.77;3.37;;;;;;;32.85;35.72;100251.63;2156425;82;30176;-69
2022/07/04 12:09:57;;;;;;;6.50;3.95;;;;;;;32.95;35.30;100253.03;2158394;82;27705;-71
2022/07/04 12:13:07;;;;;;;8.88;3.37;;;;;;;33.01;34.73;100246.59;2129049;82;29482;-71
2022/07/04 12:16:12;;;;;;;5.97;3.00;;;;;;;33.02;34.35;100245.52;2158329;82;31011;-69
2022/07/04 12:19:13;;;;;;;4.05;3.37;;;;;;;32.98;34.60;100246.52;2158263;82;33170;-67
2022/07/04 12:22:37;;;;;;;5.08;1.90;;;;;;;33.04;34.60;100241.98;2158416;82;29360;-70
2022/07/04 12:25:39;;;;;;;;;;;;;;;33.12;34.43;100236.13;2161044;82;27744;-69
2022/07/04 12:28:41;;;;;;;3.52;3.22;;;;;;;33.15;33.59;100244.00;2158352;82;28689;-69
2022/07/04 12:31:44;;;;;;;3.35;3.12;;;;;;;33.11;33.45;100246.08;2158382;82;31833;-70
2022/07/04 12:34:46;;;;;;;2.27;2.05;;;;;;;33.03;33.35;100245.27;2145951;82;34063;-70
2022/07/04 12:38:07;;;;;;;3.17;2.98;;;;;;;32.99;33.38;100241.27;2121464;82;29342;-70
2022/07/04 12:41:15;;;;;;;3.85;2.58;;;;;;;32.94;32.49;100249.42;2121573;83;27627;-70
2022/07/04 12:44:21;;;;;;;2.92;2.72;;;;;;;32.88;32.20;100244.24;2121360;83;28663;-71
2022/07/04 12:47:22;;;;;;;2.90;2.27;;;;;;;32.84;31.21;100246.31;2120580;83;31304;-67
2022/07/04 12:50:27;;;;;;;2.47;2.27;;;;;;;32.78;31.36;100243.84;2123071;83;32943;-70
2022/07/04 12:53:34;;;;;;;2.55;1.07;;;;;;;32.81;31.14;100243.43;2124988;83;29413;-66
2022/07/04 12:56:42;;;;;;;2.08;1.90;;;;;;;32.87;31.40;100238.90;2124735;82;28165;-71
2022/07/04 12:59:43;;;;;;;6.83;2.33;;;;;;;32.83;31.31;100246.83;2124124;83;28667;-70
2022/07/04 13:02:44;;;;;;;4.40;2.47;;;;;;;32.84;31.10;100250.48;2124886;83;31016;-70
2022/07/04 13:05:46;;;;;;;6.45;2.25;;;;;;;32.81;30.45;100247.59;2149140;82;33013;-71
2022/07/04 13:08:47;;;;;;;4.17;2.40;;;;;;;32.78;30.80;100243.00;2134591;82;30133;-71
2022/07/04 13:15:11;;;;;;;2.37;2.17;;;;;;;32.75;30.63;100249.00;2161777;82;28754;-70
2022/07/04 13:18:12;;;;;;;3.77;2.15;;;;;;;32.78;30.73;100252.16;2162253;82;31682;-70
2022/07/04 13:21:14;;;;;;;3.20;1.72;;;;;;;32.83;30.80;100245.45;2162103;82;32950;-71
2022/07/04 13:24:15;;;;;;;2.52;2.33;;;;;;;32.76;30.82;100248.80;2159789;82;30122;-71
2022/07/04 13:27:18;;;;;;;2.62;2.33;;;;;;;32.72;30.49;100255.86;2162234;82;27733;-70
2022/07/04 13:30:19;;;;;;;2.87;2.20;;;;;;;32.70;30.16;100243.58;2161541;82;29516;-71
2022/07/04 13:33:21;;;;;;;2.95;2.72;;;;;;;32.73;30.67;100251.45;2124982;83;31013;-71
2022/07/04 13:36:22;;;;;;;5.70;4.50;;;;;;;32.81;30.85;100255.91;2122367;83;32942;-70
2022/07/04 13:39:24;;;;;;;5.05;4.22;;;;;;;32.82;30.58;100250.68;2153238;80;30136;-70
2022/07/04 13:45:48;;;;;;;3.35;3.05;;;;;;;32.78;30.12;100251.33;2161209;80;28787;-69
2022/07/04 13:48:48;;;;;;;3.73;3.00;;;;;;;32.75;30.41;100244.84;2161489;80;31029;-72
2022/07/04 13:51:50;;;;;;;3.45;2.72;;;;;;;32.58;30.37;100243.99;2157325;81;32964;-67
2022/07/04 13:54:51;;;;;;;3.02;2.83;;;;;;;32.46;30.51;100247.17;2168683;80;28844;-71
2022/07/04 13:57:52;;;;;;;3.00;2.80;;;;;;;32.38;30.57;100246.90;2157309;80;27712;-70
2022/07/04 14:00:54;;;;;;;3.10;2.90;;;;;;;32.36;30.75;100254.03;2157659;80;28672;-69
2022/07/04 14:03:55;;;;;;;8.43;2.27;;;;;;;32.34;30.66;100250.66;2157247;80;31033;-71
2022/07/04 14:06:56;;;;;;;3.60;2.10;;;;;;;32.32;30.74;100245.87;2158015;80;32977;-71
2022/07/04 14:09:57;;;;;;;3.33;2.42;;;;;;;32.29;30.47;100244.92;2157973;80;30126;-69
2022/07/04 14:12:58;;;;;;;4.60;2.62;;;;;;;32.28;30.71;100245.98;2157953;80;27684;-72
2022/07/04 14:16:01;;;;;;;2.92;2.33;;;;;;;32.26;30.77;100235.66;2157783;80;28661;-67
2022/07/04 14:19:03;;;;;;;3.50;2.72;;;;;;;32.27;30.43;100230.42;2157286;80;31020;-73
2022/07/04 14:22:04;;;;;;;2.70;2.50;;;;;;;32.25;30.71;100225.61;2127810;82;34168;-66
2022/07/04 14:25:08;;;;;;;3.27;2.45;;;;;;;32.23;30.40;100226.36;2157555;80;29333;-66
2022/07/04 14:28:09;;;;;;;3.55;2.22;;;;;;;32.11;30.61;100226.20;2158012;80;28478;-66
2022/07/04 14:31:11;;;;;;;2.70;2.50;;;;;;;31.97;30.63;100226.27;2157886;80;28881;-67
2022/07/04 14:34:13;;;;;;;3.45;2.05;;;;;;;31.84;30.68;100211.09;2158010;80;31834;-71
2022/07/04 14:37:14;;;;;;;3.42;2.37;;;;;;;31.72;30.78;100211.46;2158204;80;32982;-69